Time;durP1;ratioP1;P1;durP2;ratioP2;P2;SDS_P1;SDS_P2;PMS_P1;PMS_P2;Temp;Humidity;BMP_temperature;BMP_pressure;BME280_temperature;BME280_humidity;BME280_pressure;Samples;Min_cycle;Max_cycle;Signal;HPM_P1;HPM_P2
2021/11/15 00:01:13;;;;;;;4.20;3.80;;;16.70;97.20;;;17.04;49.12;102123.81;5005528;27;100469;-44
2021/11/15 00:03:43;;;;;;;4.90;4.23;;;16.60;97.70;;;16.99;49.41;102135.59;4992571;27;99279;-46
2021/11/15 00:06:10;;;;;;;3.87;3.47;;;16.50;97.80;;;16.90;49.73;102137.69;4989697;27;97445;-51
2021/11/15 00:08:36;;;;;;;4.20;3.10;;;16.40;98.20;;;16.87;49.54;102137.81;4992526;27;97934;-49
2021/11/15 00:11:02;;;;;;;3.87;3.30;;;16.40;98.30;;;16.84;49.68;102134.41;4985388;27;99243;-51
2021/11/15 00:13:28;;;;;;;3.23;2.93;;;16.30;98.20;;;16.80;49.86;102136.31;4994822;27;98232;-47
2021/11/15 00:15:54;;;;;;;3.23;2.93;;;16.30;98.30;;;16.78;49.99;102137.28;5000398;27;108459;-48
2021/11/15 00:18:20;;;;;;;3.70;3.33;;;16.30;98.60;;;16.74;50.06;102135.69;4990332;27;99235;-46
2021/11/15 00:20:46;;;;;;;3.43;3.10;;;16.30;98.40;;;16.75;50.14;102143.59;4987169;27;97512;-51
2021/11/15 00:23:11;;;;;;;3.10;2.90;;;16.30;98.50;;;16.76;49.86;102140.00;4984984;27;99989;-47
2021/11/15 00:25:38;;;;;;;3.50;3.03;;;16.30;98.00;;;16.75;49.94;102140.94;4992258;27;97750;-44
2021/11/15 00:28:04;;;;;;;5.83;5.23;;;16.30;98.10;;;16.73;49.82;102129.47;5033642;27;96988;-46
2021/11/15 00:30:30;;;;;;;4.13;3.73;;;16.30;98.00;;;16.68;50.00;102131.47;5011860;27;99650;-44
2021/11/15 00:32:56;;;;;;;3.30;3.00;;;16.10;98.30;;;16.61;50.26;102136.09;5002480;27;97884;-46
2021/11/15 00:35:21;;;;;;;4.07;3.10;;;16.00;98.80;;;16.59;50.38;102137.09;5018828;27;103803;-47
2021/11/15 00:37:48;;;;;;;3.63;2.87;;;16.00;98.70;;;16.58;50.32;102130.03;4985246;28;97396;-45
2021/11/15 00:40:17;;;;;;;3.27;2.97;;;16.00;98.90;;;16.57;50.41;102128.28;5033706;27;97686;-46
2021/11/15 00:42:44;;;;;;;4.00;3.60;;;16.00;99.20;;;16.61;50.48;102141.44;5025481;27;98283;-47
2021/11/15 00:45:13;;;;;;;3.37;3.07;;;16.20;98.90;;;16.65;50.02;102132.41;5007709;27;97781;-49
2021/11/15 00:47:39;;;;;;;3.83;3.53;;;16.20;98.60;;;16.70;50.14;102132.28;5012410;27;97423;-48
2021/11/15 00:50:09;;;;;;;3.30;3.00;;;16.40;98.20;;;16.79;50.05;102134.59;4998942;27;97309;-49
2021/11/15 00:52:35;;;;;;;4.03;3.63;;;16.50;97.90;;;16.82;49.77;102134.47;5013805;27;98083;-46
2021/11/15 00:55:01;;;;;;;2.70;2.50;;;16.60;97.40;;;16.88;49.56;102139.56;4999055;27;97194;-50
2021/11/15 00:57:27;;;;;;;3.50;3.20;;;16.60;98.00;;;16.93;49.73;102132.28;5029348;27;99464;-52
2021/11/15 00:59:52;;;;;;;2.93;2.70;;;16.70;97.80;;;17.03;49.50;102134.56;5019262;27;98218;-51
2021/11/15 01:02:20;;;;;;;3.00;2.70;;;16.90;97.40;;;17.04;49.43;102134.50;5012793;27;100083;-49
2021/11/15 01:04:45;;;;;;;2.80;2.60;;;16.90;96.80;;;17.00;49.47;102132.00;5004037;27;102784;-47
2021/11/15 01:07:11;;;;;;;4.40;4.00;;;16.70;97.60;;;16.97;49.60;102134.81;5011306;27;97945;-46
2021/11/15 01:09:38;;;;;;;3.87;3.30;;;16.60;97.40;;;16.94;49.37;102128.66;5005858;27;98817;-49
2021/11/15 01:12:04;;;;;;;2.87;2.67;;;16.60;97.80;;;17.00;49.39;102121.34;5004390;27;100239;-46
2021/11/15 01:14:31;;;;;;;2.90;2.70;;;16.70;97.80;;;17.05;49.23;102125.56;5011945;27;97053;-51
2021/11/15 01:16:57;;;;;;;3.00;2.80;;;16.80;97.20;;;17.06;49.46;102115.75;4999964;27;97437;-49
2021/11/15 01:19:23;;;;;;;3.23;2.90;;;16.80;97.10;;;17.00;49.31;102126.69;5024152;27;99549;-46
2021/11/15 01:21:49;;;;;;;4.43;4.03;;;16.70;97.40;;;16.95;49.36;102122.41;5005817;27;98199;-50
2021/11/15 01:24:16;;;;;;;2.97;2.67;;;16.60;97.40;;;16.91;49.53;102112.78;5003178;27;96876;-47
2021/11/15 01:26:42;;;;;;;2.90;2.63;;;16.50;98.30;;;16.92;49.86;102114.53;5017604;27;97382;-47
2021/11/15 01:29:11;;;;;;;3.00;2.70;;;16.50;98.20;;;16.94;49.75;102103.81;5002081;27;117412;-47
2021/11/15 01:31:38;;;;;;;2.80;2.50;;;16.60;98.10;;;17.10;49.20;102109.41;5009570;27;96833;-51
2021/11/15 01:34:06;;;;;;;3.33;3.03;;;16.90;97.50;;;17.25;49.04;102103.44;5007807;27;97055;-47
2021/11/15 01:36:33;;;;;;;3.20;2.87;;;17.20;97.10;;;17.34;48.72;102108.38;5016313;27;99680;-48
2021/11/15 01:38:59;;;;;;;2.97;2.77;;;17.30;96.80;;;17.38;48.39;102102.03;5002273;27;97656;-51
2021/11/15 01:41:25;;;;;;;3.07;2.77;;;17.40;96.70;;;17.47;48.27;102096.28;5012661;27;97021;-49
2021/11/15 01:43:52;;;;;;;2.90;2.63;;;17.50;96.50;;;17.54;48.25;102089.78;5002164;27;97447;-56
2021/11/15 01:46:18;;;;;;;2.80;2.53;;;17.60;96.20;;;17.58;47.74;102102.97;5006919;27;96823;-49
2021/11/15 01:48:44;;;;;;;2.10;2.00;;;17.60;95.90;;;17.58;48.11;102086.97;5024278;27;100167;-47
2021/11/15 01:51:11;;;;;;;3.13;2.83;;;17.50;95.70;;;17.49;48.03;102094.41;5009885;27;97285;-45
2021/11/15 01:53:37;;;;;;;2.77;2.50;;;17.40;96.30;;;17.44;48.35;102101.75;5008815;27;97228;-49
2021/11/15 01:56:03;;;;;;;2.60;2.40;;;17.20;96.70;;;17.45;48.15;102100.81;5006331;27;97698;-49
2021/11/15 01:58:29;;;;;;;3.17;2.77;;;17.20;96.80;;;17.50;48.04;102105.94;5027475;27;97736;-46
2021/11/15 02:00:59;;;;;;;2.67;2.47;;;17.30;96.60;;;17.58;47.78;102102.97;4998862;27;98238;-51
2021/11/15 02:03:27;;;;;;;2.80;2.60;;;17.50;96.40;;;17.66;47.66;102100.88;5027043;27;97592;-45
2021/11/15 02:05:53;;;;;;;2.90;2.67;;;17.60;96.00;;;17.70;47.54;102092.69;4999531;27;97206;-49
2021/11/15 02:08:20;;;;;;;3.00;2.70;;;17.70;95.80;;;17.68;47.47;102093.66;5026779;27;97165;-48
2021/11/15 02:10:46;;;;;;;4.20;3.53;;;17.70;95.70;;;17.66;47.50;102095.53;4987479;28;99094;-49
2021/11/15 02:13:21;;;;;;;2.87;2.63;;;17.60;95.30;;;17.57;47.78;102091.44;5002545;27;97770;-53
2021/11/15 02:15:49;;;;;;;2.60;2.40;;;17.50;95.30;;;17.45;48.02;102102.63;5008472;27;97491;-50
2021/11/15 02:18:16;;;;;;;6.90;5.73;;;17.20;96.40;;;17.35;48.04;102103.91;5006822;27;97221;-51
2021/11/15 02:21:01;;;;;;;3.13;2.70;;;17.00;95.80;;;17.23;48.78;102097.31;5008239;27;99856;-49
2021/11/15 02:23:31;;;;;;;3.53;3.23;;;16.80;97.20;;;17.10;48.77;102096.06;5018465;27;99875;-47
2021/11/15 02:25:59;;;;;;;3.23;2.93;;;16.60;96.90;;;16.98;49.34;102089.44;5005014;27;96944;-50
2021/11/15 02:28:35;;;;;;;4.07;3.67;;;16.50;97.90;;;16.91;49.61;102091.44;5008392;27;98665;-45
2021/11/15 02:31:03;;;;;;;3.20;2.90;;;16.40;97.50;;;16.80;49.87;102093.69;5028972;27;101794;-44
2021/11/15 02:33:31;;;;;;;2.87;2.60;;;16.30;98.20;;;16.75;49.71;102090.31;5012664;27;97442;-44
2021/11/15 02:35:59;;;;;;;6.47;5.10;;;16.10;98.60;;;16.75;49.77;102084.13;5020072;27;96897;-48
2021/11/15 02:38:26;;;;;;;2.60;2.40;;;16.30;97.90;;;16.74;50.18;102093.91;5008642;27;99451;-47
2021/11/15 02:40:52;;;;;;;3.07;2.87;;;16.20;98.40;;;16.74;49.88;102090.38;5005090;27;97884;-52
2021/11/15 02:43:18;;;;;;;3.23;2.93;;;16.30;98.30;;;16.73;50.05;102086.84;5023493;27;96997;-46
2021/11/15 02:45:44;;;;;;;2.50;2.30;;;16.30;98.00;;;16.72;50.18;102092.25;5018925;27;97040;-48
2021/11/15 02:48:10;;;;;;;2.97;2.73;;;16.20;98.10;;;16.69;50.25;102090.56;5023624;27;97467;-45
2021/11/15 02:50:36;;;;;;;2.43;2.23;;;16.20;98.20;;;16.66;49.96;102090.66;5016164;27;97358;-45
2021/11/15 02:53:08;;;;;;;3.63;3.17;;;16.20;98.10;;;16.62;50.41;102097.00;5007477;27;97851;-45
2021/11/15 02:55:36;;;;;;;3.17;2.87;;;16.10;98.50;;;16.60;50.54;102086.41;5026326;27;97095;-48
2021/11/15 02:58:06;;;;;;;4.73;4.33;;;16.10;98.50;;;16.60;50.55;102101.53;5011641;27;97648;-47
2021/11/15 03:00:56;;;;;;;5.83;5.10;;;16.00;98.30;;;16.55;50.29;102092.84;5012422;27;98061;-44
2021/11/15 03:03:24;;;;;;;4.50;3.90;;;16.00;98.20;;;16.47;50.69;102089.59;5031601;27;100792;-47
2021/11/15 03:05:53;;;;;;;3.80;3.40;;;15.80;98.60;;;16.40;50.94;102077.44;5009631;27;97320;-44
2021/11/15 03:08:21;;;;;;;3.50;3.20;;;15.70;99.10;;;16.39;50.91;102089.91;5017646;27;101513;-44
2021/11/15 03:10:50;;;;;;;4.33;3.23;;;15.70;99.20;;;16.37;51.06;102094.41;5026694;27;98047;-46
2021/11/15 03:13:19;;;;;;;3.53;3.13;;;15.70;99.20;;;16.36;51.27;102082.91;5027584;27;96939;-45
2021/11/15 03:15:50;;;;;;;4.77;4.27;;;15.70;99.00;;;16.36;51.21;102076.72;5010154;27;97476;-46
2021/11/15 03:18:19;;;;;;;3.23;2.43;;;15.80;98.90;;;16.36;51.15;102076.72;5012667;27;103231;-47
2021/11/15 03:20:56;;;;;;;3.13;2.83;;;15.80;99.20;;;16.35;51.08;102078.50;5009877;27;97192;-45
2021/11/15 03:23:27;;;;;;;3.70;2.67;;;15.80;98.90;;;16.34;51.32;102075.88;4995878;27;98654;-51
2021/11/15 03:25:56;;;;;;;4.70;4.27;;;15.70;99.40;;;16.34;51.11;102076.72;5006998;27;97577;-46
2021/11/15 03:28:29;;;;;;;3.47;3.10;;;15.70;99.10;;;16.33;51.31;102077.66;5007243;27;97696;-47
2021/11/15 03:31:07;;;;;;;3.07;2.77;;;15.70;99.50;;;16.33;51.51;102067.00;5013593;27;98613;-45
2021/11/15 03:33:36;;;;;;;5.43;4.37;;;15.70;99.40;;;16.31;51.27;102071.53;5024883;27;97154;-48
2021/11/15 03:36:03;;;;;;;7.80;5.50;;;15.60;99.40;;;16.31;51.28;102068.00;5019083;27;97178;-44
2021/11/15 03:38:29;;;;;;;6.23;5.50;;;15.60;99.30;;;16.29;51.23;102076.06;5011875;27;97138;-51
2021/11/15 03:40:56;;;;;;;4.80;3.90;;;15.60;99.40;;;16.28;51.71;102076.09;5028973;27;98468;-45
2021/11/15 03:43:23;;;;;;;2.80;2.60;;;15.60;99.70;;;16.27;51.54;102072.56;5009312;27;96840;-45
2021/11/15 03:45:49;;;;;;;2.50;2.13;;;15.60;99.70;;;16.27;51.55;102077.91;5028573;27;97165;-47
2021/11/15 03:48:16;;;;;;;5.90;5.10;;;15.60;99.70;;;16.26;51.40;102076.16;5002974;27;97304;-50
2021/11/15 03:50:42;;;;;;;2.87;2.60;;;15.60;99.20;;;16.26;51.57;102083.28;5006563;27;96997;-44
2021/11/15 03:53:11;;;;;;;3.73;3.07;;;15.60;99.90;;;16.25;51.61;102082.41;5007854;27;97197;-49
2021/11/15 03:55:38;;;;;;;7.77;6.57;;;15.60;99.70;;;16.24;51.58;102083.34;5004098;27;97054;-49
2021/11/15 03:58:05;;;;;;;2.87;2.30;;;15.60;99.40;;;16.24;51.55;102082.47;5009730;27;100196;-48
2021/11/15 04:00:36;;;;;;;5.60;4.90;;;15.50;99.90;;;16.20;51.65;102091.47;5009834;27;97228;-44
2021/11/15 04:03:09;;;;;;;4.73;3.73;;;15.50;99.80;;;16.21;51.85;102087.94;5009514;27;96933;-44
2021/11/15 04:05:44;;;;;;;6.13;5.53;;;15.50;99.80;;;16.21;51.85;102094.13;5011879;27;97450;-49
2021/11/15 04:08:10;;;;;;;3.23;2.93;;;15.60;99.70;;;16.20;51.71;102097.72;5015527;27;97181;-45
2021/11/15 04:10:43;;;;;;;3.43;3.03;;;15.50;99.70;;;16.19;51.60;102089.75;5013104;27;98373;-44
2021/11/15 04:13:23;;;;;;;6.13;4.57;;;15.60;99.90;;;16.18;51.53;102078.22;5006191;27;97100;-47
2021/11/15 04:15:54;;;;;;;9.97;6.30;;;15.60;99.60;;;16.18;51.60;102082.69;5012970;27;97081;-44
2021/11/15 04:18:26;;;;;;;7.23;6.47;;;15.50;99.40;;;16.14;51.80;102081.94;4996037;27;102164;-47
2021/11/15 04:20:54;;;;;;;3.17;2.83;;;15.50;99.60;;;16.14;51.76;102087.25;5002011;27;97908;-55
2021/11/15 04:23:20;;;;;;;3.70;3.27;;;15.50;99.90;;;16.14;52.00;102081.94;5006101;27;97660;-45
2021/11/15 04:25:46;;;;;;;3.40;2.80;;;15.50;99.90;;;16.16;51.62;102085.41;5011386;27;96763;-46
2021/11/15 04:28:12;;;;;;;3.13;2.83;;;15.60;99.90;;;16.22;51.62;102089.66;5002187;27;100156;-49
2021/11/15 04:30:38;;;;;;;8.13;7.20;;;15.70;99.60;;;16.25;51.38;102071.78;5014420;27;97331;-44
2021/11/15 04:33:06;;;;;;;3.03;2.73;;;15.80;98.90;;;16.28;51.37;102070.78;5004608;27;97528;-49
2021/11/15 04:35:33;;;;;;;2.87;2.57;;;15.70;99.80;;;16.33;51.22;102069.66;5006560;27;98753;-44
2021/11/15 04:38:00;;;;;;;3.43;2.90;;;15.80;99.40;;;16.38;51.33;102068.66;5011505;27;97645;-45
2021/11/15 04:40:27;;;;;;;2.60;2.40;;;15.90;99.30;;;16.41;51.38;102068.53;5004286;27;99466;-44
2021/11/15 04:42:53;;;;;;;3.03;2.57;;;16.00;99.30;;;16.43;51.04;102072.00;5024618;27;96992;-51
2021/11/15 04:45:19;;;;;;;2.77;2.47;;;16.00;99.00;;;16.46;50.96;102071.88;5018996;27;98918;-44
2021/11/15 04:47:47;;;;;;;2.50;2.30;;;16.00;99.00;;;16.52;50.84;102072.53;5008680;27;100420;-44
2021/11/15 04:50:14;;;;;;;3.20;2.90;;;16.10;99.10;;;16.63;50.43;102070.31;5001641;27;97894;-46
2021/11/15 04:52:41;;;;;;;2.27;2.07;;;16.30;98.30;;;16.66;50.34;102074.66;5003151;27;97060;-46
2021/11/15 04:55:10;;;;;;;5.90;4.90;;;16.40;98.00;;;16.64;50.47;102068.53;4995177;27;97560;-49
2021/11/15 04:57:37;;;;;;;3.73;3.17;;;16.30;98.10;;;16.62;50.39;102063.25;5006789;27;98524;-44
2021/11/15 05:00:10;;;;;;;6.90;4.70;;;16.20;98.30;;;16.61;50.45;102068.63;5002437;27;98210;-46
2021/11/15 05:02:36;;;;;;;3.20;2.90;;;16.10;98.50;;;16.58;50.55;102060.75;5003164;27;97200;-44
2021/11/15 05:05:03;;;;;;;4.93;4.20;;;16.00;98.60;;;16.54;50.83;102065.34;5019889;27;97391;-46
2021/11/15 05:07:29;;;;;;;6.00;4.47;;;16.00;98.80;;;16.53;50.76;102074.28;5001984;27;100325;-47
2021/11/15 05:09:55;;;;;;;3.20;2.90;;;16.00;98.70;;;16.52;50.68;102069.00;4992925;27;97069;-45
2021/11/15 05:12:21;;;;;;;2.60;2.40;;;15.90;99.00;;;16.51;50.83;102069.94;5025557;27;96763;-45
2021/11/15 05:14:47;;;;;;;4.00;3.60;;;16.00;99.20;;;16.57;50.69;102064.34;5025924;27;96680;-48
2021/11/15 05:17:13;;;;;;;2.47;2.20;;;16.10;98.90;;;16.56;50.85;102063.50;5004075;27;100030;-45
2021/11/15 05:19:39;;;;;;;2.60;2.30;;;16.10;98.50;;;16.58;50.98;102064.28;5003882;27;97213;-47
2021/11/15 05:22:05;;;;;;;3.27;2.97;;;16.10;99.10;;;16.58;50.76;102066.09;5002973;27;97237;-44
2021/11/15 05:24:31;;;;;;;4.27;3.80;;;16.10;98.50;;;16.54;50.65;102064.47;5007362;27;96971;-46
2021/11/15 05:26:59;;;;;;;12.77;11.40;;;16.00;98.60;;;16.52;50.81;102061.00;5001794;27;97114;-53
2021/11/15 05:29:25;;;;;;;3.10;2.80;;;16.00;98.70;;;16.59;50.76;102062.50;5005328;27;99687;-49
2021/11/15 05:31:51;;;;;;;3.83;3.00;;;16.20;98.80;;;16.62;50.33;102057.03;5034284;27;97327;-44
2021/11/15 05:34:17;;;;;;;7.23;5.90;;;16.30;98.40;;;16.63;50.65;102058.78;4998495;27;104400;-44
2021/11/15 05:36:43;;;;;;;5.33;4.50;;;16.20;97.80;;;16.56;50.86;102057.28;5037085;27;100191;-44
2021/11/15 05:39:10;;;;;;;3.53;3.10;;;16.10;98.40;;;16.56;50.57;102057.28;5004404;27;100821;-44
2021/11/15 05:41:36;;;;;;;3.57;3.23;;;16.10;98.80;;;16.57;50.65;102061.69;5012789;27;96712;-45
2021/11/15 05:44:02;;;;;;;3.97;2.90;;;16.10;98.90;;;16.59;50.86;102057.16;5008881;27;96983;-47
2021/11/15 05:46:31;;;;;;;12.23;10.37;;;16.10;99.00;;;16.65;50.42;102063.16;5011296;27;97631;-47
2021/11/15 05:48:57;;;;;;;11.97;10.00;;;16.30;97.50;;;16.64;50.44;102060.53;5016192;27;98550;-51
2021/11/15 05:51:23;;;;;;;2.90;2.70;;;16.20;98.10;;;16.62;50.49;102059.72;5006855;27;98598;-51
2021/11/15 05:53:49;;;;;;;3.47;2.97;;;16.10;99.10;;;16.61;50.80;102063.31;5018677;27;96908;-48
2021/11/15 05:56:15;;;;;;;11.13;9.77;;;16.10;98.90;;;16.58;49.95;102056.31;5007765;27;97982;-46
2021/11/15 05:58:41;;;;;;;3.63;3.30;;;16.10;98.00;;;16.61;50.63;102055.31;5023809;27;100046;-48
2021/11/15 06:01:07;;;;;;;3.33;3.03;;;16.10;98.40;;;16.64;50.44;102057.88;5005511;27;97201;-47
2021/11/15 06:03:33;;;;;;;3.80;2.93;;;16.20;98.20;;;16.68;50.40;102056.88;5031334;27;97167;-46
2021/11/15 06:05:59;;;;;;;2.60;2.40;;;16.30;98.80;;;16.75;50.17;102052.16;5017535;27;97741;-45
2021/11/15 06:08:25;;;;;;;3.10;2.80;;;16.40;98.60;;;16.86;50.05;102058.78;5010612;27;96909;-46
2021/11/15 06:10:53;;;;;;;3.47;3.03;;;16.60;98.00;;;16.92;49.96;102055.00;5013944;27;97441;-49
2021/11/15 06:13:20;;;;;;;4.97;3.57;;;16.70;97.30;;;16.95;49.83;102061.09;5003100;27;99028;-48
2021/11/15 06:15:47;;;;;;;3.53;3.20;;;16.70;97.00;;;16.97;49.72;102057.50;5025535;27;98830;-51
2021/11/15 06:18:14;;;;;;;10.50;8.50;;;16.70;97.60;;;16.98;49.45;102052.09;5003921;27;98223;-50
2021/11/15 06:20:41;;;;;;;6.43;5.07;;;16.70;96.50;;;16.94;49.64;102056.69;4994292;27;97409;-46
2021/11/15 06:23:07;;;;;;;5.27;4.57;;;16.60;97.30;;;16.92;49.67;102055.00;5009168;27;97739;-50
2021/11/15 06:25:34;;;;;;;5.67;5.10;;;16.50;97.20;;;16.95;49.43;102065.56;5014980;27;98125;-47
2021/11/15 06:28:01;;;;;;;5.00;4.10;;;16.60;97.10;;;16.98;49.22;102064.56;5008772;27;97276;-46
2021/11/15 06:30:27;;;;;;;11.40;9.80;;;16.70;96.50;;;16.94;49.36;102070.03;5010424;27;99260;-49
2021/11/15 06:32:53;;;;;;;3.03;2.77;;;16.70;96.50;;;16.95;49.50;102077.09;5015621;27;97060;-54
2021/11/15 06:35:20;;;;;;;3.37;3.00;;;16.70;97.90;;;16.99;49.28;102082.28;5014304;27;96981;-45
2021/11/15 06:37:46;;;;;;;3.83;3.43;;;16.70;97.30;;;17.03;49.52;102083.91;5016043;27;96916;-46
2021/11/15 06:40:15;;;;;;;4.30;3.90;;;16.80;97.20;;;17.04;49.17;102074.97;5005515;27;98653;-50
2021/11/15 06:42:42;;;;;;;7.93;6.67;;;16.80;97.00;;;17.00;49.23;102081.38;5018009;27;97070;-47
2021/11/15 06:45:09;;;;;;;4.00;3.30;;;16.70;96.60;;;16.95;49.59;102084.22;5005301;27;100665;-44
2021/11/15 06:47:37;;;;;;;3.70;3.30;;;16.60;97.20;;;16.90;49.76;102079.06;5016958;27;98072;-45
2021/11/15 06:50:06;;;;;;;3.30;2.63;;;16.50;97.60;;;16.93;49.71;102086.97;5008346;27;97036;-52
2021/11/15 06:52:33;;;;;;;4.13;3.00;;;16.50;98.10;;;17.07;49.51;102082.84;5011705;27;97110;-50
2021/11/15 06:54:59;;;;;;;2.90;2.60;;;16.80;97.70;;;17.09;49.19;102084.53;5026701;27;99533;-48
2021/11/15 06:57:26;;;;;;;3.83;3.50;;;16.90;97.30;;;17.13;49.28;102085.28;5024247;27;99500;-47
2021/11/15 06:59:53;;;;;;;9.40;7.90;;;16.90;96.30;;;17.10;49.21;102096.06;5016143;27;97216;-51
2021/11/15 07:02:19;;;;;;;3.13;2.60;;;16.90;96.30;;;17.11;49.16;102103.13;5010407;27;97535;-51
2021/11/15 07:04:45;;;;;;;7.53;6.27;;;16.80;97.50;;;17.06;49.29;102089.09;5015940;27;99648;-49
2021/11/15 07:07:11;;;;;;;4.37;3.63;;;16.80;96.50;;;17.03;49.58;102095.44;5011546;27;97399;-45
2021/11/15 07:09:37;;;;;;;11.27;8.40;;;16.70;96.80;;;17.00;49.08;102097.34;5025866;27;99747;-48
2021/11/15 07:12:03;;;;;;;3.27;2.97;;;16.60;96.30;;;16.98;49.50;102096.56;5011306;27;97694;-45
2021/11/15 07:14:29;;;;;;;4.63;4.20;;;16.60;97.40;;;16.97;49.46;102092.16;5013168;27;97170;-49
2021/11/15 07:16:55;;;;;;;2.90;2.70;;;16.60;97.20;;;16.94;49.79;102096.69;5010530;27;98362;-48
2021/11/15 07:19:21;;;;;;;3.33;2.77;;;16.60;97.80;;;16.95;49.76;102082.44;5023638;27;96877;-46
2021/11/15 07:21:47;;;;;;;3.30;2.97;;;16.60;97.30;;;16.95;49.71;102087.75;5025645;27;97167;-47
2021/11/15 07:24:13;;;;;;;9.53;7.27;;;16.60;97.80;;;17.02;48.57;102093.69;5008149;27;103910;-46
2021/11/15 07:26:39;;;;;;;11.87;9.07;;;16.70;96.20;;;17.12;49.11;102094.22;5029279;27;97122;-46
2021/11/15 07:29:05;;;;;;;11.40;8.43;;;16.90;96.00;;;17.05;49.04;102092.69;5003162;27;98475;-45
2021/11/15 07:31:31;;;;;;;2.87;2.57;;;16.80;95.50;;;17.04;49.34;102088.31;5012286;27;97281;-45
2021/11/15 07:33:57;;;;;;;10.33;8.63;;;16.70;97.70;;;17.00;48.95;102084.91;5018853;27;100401;-44
2021/11/15 07:36:23;;;;;;;10.93;8.37;;;16.70;96.10;;;17.02;49.16;102088.38;5007943;27;98125;-46
2021/11/15 07:38:49;;;;;;;3.43;2.93;;;16.80;96.90;;;17.10;48.87;102096.06;5000556;27;99632;-48
2021/11/15 07:41:15;;;;;;;3.63;2.93;;;16.90;97.10;;;17.24;48.79;102104.38;5007864;27;96995;-49
2021/11/15 07:43:42;;;;;;;3.87;3.40;;;17.10;96.90;;;17.30;48.51;102093.44;5028461;27;99995;-44
2021/11/15 07:46:08;;;;;;;3.00;2.70;;;17.20;96.40;;;17.27;48.29;102104.25;5011086;27;97232;-46
2021/11/15 07:48:34;;;;;;;3.37;3.07;;;17.20;96.00;;;17.22;48.63;102108.91;5032779;27;98470;-48
2021/11/15 07:51:01;;;;;;;6.90;5.90;;;17.00;96.60;;;17.13;48.58;102117.28;5010150;27;96849;-48
2021/11/15 07:53:36;;;;;;;3.93;3.53;;;16.80;96.60;;;17.04;48.95;102106.97;5030039;27;97333;-50
2021/11/15 07:56:05;;;;;;;3.47;3.13;;;16.70;97.20;;;16.98;49.31;102112.56;5001857;27;97992;-51
2021/11/15 07:58:31;;;;;;;9.23;6.80;;;16.50;97.10;;;16.92;49.49;102118.97;4988816;27;98383;-46
2021/11/15 08:00:57;;;;;;;4.60;3.90;;;16.50;96.40;;;16.84;49.82;102111.28;4988362;27;97773;-52
2021/11/15 08:03:23;;;;;;;3.37;3.07;;;16.40;97.20;;;16.74;49.88;102115.22;4991084;27;98896;-47
2021/11/15 08:05:49;;;;;;;8.77;7.70;;;16.20;98.00;;;16.70;49.80;102118.94;4990690;27;97872;-51
2021/11/15 08:08:14;;;;;;;3.80;3.27;;;16.20;97.30;;;16.69;50.01;102119.00;4985757;27;98393;-52
2021/11/15 08:10:41;;;;;;;3.30;3.00;;;16.20;98.60;;;16.77;50.04;102124.91;4982466;27;108895;-48
2021/11/15 08:13:07;;;;;;;10.50;8.37;;;16.40;98.20;;;16.89;49.55;102129.75;4986208;27;99167;-48
2021/11/15 08:15:33;;;;;;;3.20;2.90;;;16.60;96.90;;;16.93;49.46;102126.94;4992384;27;100156;-48
2021/11/15 08:18:01;;;;;;;3.10;2.80;;;16.70;97.00;;;17.00;49.60;102121.34;4983604;27;98654;-50
2021/11/15 08:20:37;;;;;;;4.27;3.87;;;16.80;97.30;;;17.05;49.27;102130.03;4990229;27;97709;-45
2021/11/15 08:23:12;;;;;;;3.17;2.70;;;16.90;96.80;;;17.06;49.48;102124.63;4985217;27;97695;-50
2021/11/15 08:26:09;;;;;;;2.90;2.57;;;16.90;97.40;;;17.14;49.09;102117.22;4988731;27;98420;-45
2021/11/15 08:28:35;;;;;;;3.03;2.80;;;17.00;97.20;;;17.14;49.24;102119.88;4988018;27;98477;-51
2021/11/15 08:31:05;;;;;;;8.97;8.00;;;17.00;96.30;;;17.13;49.17;102117.28;4988392;27;98724;-47
2021/11/15 08:37:13;;;;;;;3.80;3.00;;;16.90;97.40;;;17.25;48.90;102111.44;4979533;27;99852;-50
2021/11/15 08:39:39;;;;;;;3.50;3.03;;;17.10;97.00;;;17.31;48.74;102112.97;4988458;27;98184;-49
2021/11/15 08:42:09;;;;;;;5.87;5.27;;;17.20;96.20;;;17.29;48.48;102113.06;4965975;27;97361;-52
2021/11/15 08:44:43;;;;;;;5.30;4.80;;;17.10;96.50;;;17.34;48.51;102110.19;4991263;27;99818;-50
2021/11/15 08:47:09;;;;;;;3.70;3.00;;;17.20;95.90;;;17.35;48.64;102111.91;4982239;27;97245;-48
2021/11/15 08:49:36;;;;;;;3.43;2.97;;;17.20;96.60;;;17.44;48.42;102117.75;5004398;27;98752;-51
2021/11/15 08:52:05;;;;;;;3.30;2.63;;;17.40;96.40;;;17.50;48.37;102121.97;4978876;27;97081;-52
2021/11/15 08:54:31;;;;;;;3.53;3.17;;;17.40;96.40;;;17.60;47.84;102117.13;4991131;27;99379;-50
2021/11/15 08:57:02;;;;;;;3.03;2.73;;;17.60;96.10;;;17.69;47.62;102111.44;4991174;27;97325;-50
2021/11/15 08:59:29;;;;;;;2.87;2.43;;;17.70;95.90;;;17.74;47.46;102112.97;4986529;27;98954;-46
2021/11/15 09:01:55;;;;;;;3.30;3.00;;;17.80;95.30;;;17.79;47.36;102102.09;4984761;27;98431;-50
2021/11/15 09:04:22;;;;;;;3.73;3.27;;;17.90;95.70;;;17.83;47.08;102104.56;4991324;27;98922;-47
2021/11/15 09:06:48;;;;;;;4.03;3.50;;;17.90;95.30;;;17.75;47.43;102105.81;4987318;27;98518;-48
2021/11/15 09:09:17;;;;;;;3.57;2.93;;;17.80;94.70;;;17.69;47.42;102100.75;4984140;27;97524;-46
2021/11/15 09:11:55;;;;;;;3.60;3.30;;;17.60;95.80;;;17.72;47.29;102098.81;4989129;27;97148;-52
2021/11/15 09:14:21;;;;;;;3.40;3.10;;;17.70;95.70;;;17.66;47.63;102098.19;4980900;27;103137;-52
2021/11/15 09:16:48;;;;;;;4.07;3.27;;;17.60;95.70;;;17.66;47.53;102098.19;4990195;27;98718;-47
2021/11/15 09:19:18;;;;;;;3.73;2.97;;;17.60;95.90;;;17.61;47.63;102101.03;4983886;27;96785;-50
2021/11/15 09:21:44;;;;;;;12.90;9.27;;;17.50;95.80;;;17.51;47.79;102097.06;4994325;27;98886;-46
2021/11/15 09:24:10;;;;;;;3.57;3.07;;;17.40;95.00;;;17.38;47.98;102102.03;4985505;27;101290;-48
2021/11/15 09:26:36;;;;;;;3.57;3.20;;;17.10;95.90;;;17.33;48.23;102098.66;5005706;27;100428;-45
2021/11/15 09:29:04;;;;;;;3.70;3.33;;;17.00;96.70;;;17.32;48.46;102112.91;4968069;27;97568;-50
2021/11/15 09:31:31;;;;;;;4.97;4.47;;;17.00;96.80;;;17.36;48.21;102114.56;4990079;27;97803;-51
2021/11/15 09:33:57;;;;;;;9.63;8.63;;;17.20;96.10;;;17.37;47.95;102116.28;4987123;27;99467;-47
2021/11/15 09:36:24;;;;;;;13.00;10.80;;;17.20;94.90;;;17.40;46.84;102117.97;4987198;27;98566;-48
2021/11/15 09:38:58;;;;;;;11.70;8.63;;;17.30;94.70;;;17.42;46.04;102130.28;4994277;27;97023;-52
2021/11/15 09:41:27;;;;;;;13.77;11.07;;;17.30;94.30;;;17.38;47.14;102125.16;4983722;27;99253;-47
2021/11/15 09:43:55;;;;;;;3.53;3.23;;;17.20;94.40;;;17.31;48.26;102127.19;4992021;27;101988;-50
2021/11/15 09:46:26;;;;;;;10.40;7.70;;;17.00;96.70;;;17.30;47.98;102116.59;4983905;27;102385;-48
2021/11/15 09:49:04;;;;;;;4.07;3.60;;;17.10;95.80;;;17.33;48.26;102109.31;4988194;27;98488;-46
2021/11/15 09:51:30;;;;;;;3.60;3.30;;;17.20;96.20;;;17.36;48.02;102109.22;4999665;27;98882;-50
2021/11/15 09:54:00;;;;;;;3.53;3.23;;;17.20;96.40;;;17.40;47.90;102118.81;4982878;27;97808;-52
2021/11/15 09:56:27;;;;;;;3.27;2.97;;;17.30;96.30;;;17.48;47.98;102115.81;4984711;27;98405;-49
2021/11/15 09:58:53;;;;;;;3.20;2.90;;;17.40;96.30;;;17.55;47.70;102118.19;4985910;27;100184;-47
2021/11/15 10:01:20;;;;;;;5.33;4.80;;;17.50;95.90;;;17.55;47.41;102114.66;4983115;27;99410;-51
2021/11/15 10:03:46;;;;;;;3.27;2.93;;;17.50;95.00;;;17.59;47.73;102115.38;4988808;27;99543;-44
2021/11/15 10:06:11;;;;;;;4.40;4.00;;;17.60;95.90;;;17.55;47.69;102112.84;4983401;27;99630;-49
2021/11/15 10:08:57;;;;;;;3.13;2.83;;;17.50;94.70;;;17.55;47.87;102112.84;4982305;27;96909;-50
2021/11/15 10:11:27;;;;;;;6.10;5.10;;;17.40;96.00;;;17.44;47.81;102123.09;4984786;27;98898;-47
2021/11/15 10:13:54;;;;;;;6.13;5.53;;;17.30;95.50;;;17.35;48.22;102123.47;4988273;27;98817;-53
2021/11/15 10:16:23;;;;;;;3.67;3.37;;;17.10;95.50;;;17.27;48.37;102124.72;5000766;27;100006;-47